Archival Weather

Norman Y Mineta San Jose Intl

San Jose, California (KSJC)

Report from: Sunday, February 11, 2024 12:53 AM PST
Current time: Monday, June 24, 2024 2:32 AM PDT

Current weather – Weather history – Daily summaries
Weather forecast

Temperature8.3°C (46.9°F)
Wind chill7.7°C (45.8°F)
Dew point3.9°C (39.0°F)
Winds 3 kts (1.5 m/s, 3.5 mph) South-Southeast (160°)
Visibility10 mi. (16.1 km)
Clouds Few clouds 1,100 ft. (335 m)
Altimeter30.20 in.Hg (1023 mB)
Relative humidity74 %
Density altitude-1,002 ft. (-305 m)
Sea-level pressure102.3 kPa (1023 mB, 30.20 in.Hg)
Remarks Fully automated report
Automated weather observing station with precipitation discriminator
Pressure rising more slowly
Flight conditions Visual Meteorological Conditions
Raw dataKSJC 110853Z AUTO 16003KT 10SM FEW011 08/04 A3020 RMK AO2 SLP226 T00830039 51007
An error has occurred. This application may no longer respond until reloaded. Reload 🗙